Time;durP1;ratioP1;P1;durP2;ratioP2;P2;SDS_P1;SDS_P2;PMS_P1;PMS_P2;Temp;Humidity;BMP_temperature;BMP_pressure;BME280_temperature;BME280_humidity;BME280_pressure;Samples;Min_cycle;Max_cycle;Signal;HPM_P1;HPM_P2
2021/11/11 00:01:52;;;;;;;4.50;3.15;;;21.40;38.50;;;;;;5029621;28;20369;-48
2021/11/11 00:04:20;;;;;;;4.32;3.25;;;21.40;38.40;;;;;;5019643;28;20033;-51
2021/11/11 00:06:46;;;;;;;5.50;4.03;;;21.40;38.40;;;;;;5020895;28;20102;-50
2021/11/11 00:09:13;;;;;;;4.65;3.53;;;21.40;38.40;;;;;;5033702;28;20034;-49
2021/11/11 00:11:40;;;;;;;4.05;2.95;;;21.40;38.40;;;;;;5022700;28;20022;-49
2021/11/11 00:14:06;;;;;;;4.80;3.38;;;21.40;38.30;;;;;;5027671;28;20030;-48
2021/11/11 00:16:32;;;;;;;7.68;3.08;;;21.40;38.30;;;;;;5025278;28;20129;-53
2021/11/11 00:18:58;;;;;;;3.83;2.83;;;21.40;38.30;;;;;;5027507;28;20044;-49
2021/11/11 00:21:24;;;;;;;4.72;3.15;;;21.40;38.30;;;;;;5029308;28;20025;-49
2021/11/11 00:23:50;;;;;;;6.68;3.05;;;21.40;38.30;;;;;;5018109;28;20397;-48
2021/11/11 00:26:15;;;;;;;4.95;3.22;;;21.30;38.20;;;;;;5017590;28;20038;-51
2021/11/11 00:28:41;;;;;;;5.25;3.55;;;21.30;38.20;;;;;;5018585;28;20440;-50
2021/11/11 00:31:07;;;;;;;6.97;3.90;;;21.30;38.20;;;;;;5027144;28;20033;-49
2021/11/11 00:33:33;;;;;;;4.75;3.50;;;21.30;38.20;;;;;;5029466;28;20029;-48
2021/11/11 00:35:59;;;;;;;4.35;3.20;;;21.40;38.20;;;;;;5015516;28;20392;-51
2021/11/11 00:38:25;;;;;;;4.75;3.50;;;21.30;38.20;;;;;;5016654;28;20037;-47
2021/11/11 00:40:51;;;;;;;4.78;3.08;;;21.40;38.20;;;;;;5019163;28;20084;-50
2021/11/11 00:43:19;;;;;;;7.20;3.60;;;21.40;38.20;;;;;;5022353;28;20040;-47
2021/11/11 00:45:45;;;;;;;4.88;3.40;;;21.30;38.10;;;;;;5026173;28;20166;-49
2021/11/11 00:48:11;;;;;;;4.97;3.47;;;21.30;38.10;;;;;;5028435;28;20496;-49
2021/11/11 00:50:37;;;;;;;5.50;3.22;;;21.30;38.10;;;;;;5023641;28;20104;-47
2021/11/11 00:53:06;;;;;;;5.38;3.42;;;21.30;38.10;;;;;;5020272;28;20053;-46
2021/11/11 00:55:34;;;;;;;4.95;3.05;;;21.30;38.10;;;;;;5019213;28;20351;-47
2021/11/11 00:58:05;;;;;;;5.07;3.20;;;21.30;38.00;;;;;;5015831;28;20449;-50
2021/11/11 01:00:32;;;;;;;4.65;3.25;;;21.30;38.00;;;;;;5029895;28;20092;-51
2021/11/11 01:02:58;;;;;;;5.65;3.58;;;21.30;38.00;;;;;;5026414;28;20037;-51
2021/11/11 01:05:24;;;;;;;4.45;3.25;;;21.30;38.00;;;;;;5022015;28;20029;-54
2021/11/11 01:07:51;;;;;;;8.80;3.85;;;21.30;38.00;;;;;;5025622;28;20112;-52
2021/11/11 01:10:18;;;;;;;6.03;3.53;;;21.30;37.90;;;;;;5024412;28;20089;-51
2021/11/11 01:12:46;;;;;;;5.15;3.50;;;21.30;38.00;;;;;;5017887;28;20164;-51
2021/11/11 01:15:16;;;;;;;4.85;3.55;;;21.30;38.00;;;;;;5021862;28;20933;-52
2021/11/11 01:17:42;;;;;;;4.97;3.53;;;21.30;37.90;;;;;;5023083;28;20053;-48
2021/11/11 01:20:09;;;;;;;6.43;3.90;;;21.30;37.90;;;;;;5015737;28;20057;-48
2021/11/11 01:22:37;;;;;;;5.75;3.65;;;21.30;37.90;;;;;;5025993;28;20131;-49
2021/11/11 01:25:05;;;;;;;5.13;3.85;;;21.30;37.90;;;;;;5032635;28;20059;-53
2021/11/11 01:27:30;;;;;;;5.90;3.70;;;21.30;37.90;;;;;;5024997;28;20030;-51
2021/11/11 01:29:58;;;;;;;5.20;4.07;;;21.30;37.90;;;;;;5020356;28;20029;-50
2021/11/11 01:32:24;;;;;;;5.15;3.97;;;21.30;37.90;;;;;;5020156;28;20408;-46
2021/11/11 01:34:50;;;;;;;4.53;3.50;;;21.30;37.90;;;;;;5022473;28;20083;-49
2021/11/11 01:37:16;;;;;;;6.25;3.83;;;21.20;37.80;;;;;;5021268;28;20029;-45
2021/11/11 01:39:49;;;;;;;5.72;3.88;;;21.30;37.90;;;;;;5019060;28;20096;-53
2021/11/11 01:42:15;;;;;;;5.45;3.63;;;21.20;37.80;;;;;;5026530;28;20038;-46
2021/11/11 01:44:52;;;;;;;6.15;4.00;;;21.20;37.80;;;;;;5029429;28;20494;-51
2021/11/11 01:47:21;;;;;;;6.13;4.43;;;21.30;37.80;;;;;;5014099;28;20437;-49
2021/11/11 01:49:49;;;;;;;6.20;4.20;;;21.20;37.80;;;;;;5024051;28;20029;-51
2021/11/11 01:52:18;;;;;;;5.35;4.00;;;21.30;37.90;;;;;;5030573;28;20482;-48
2021/11/11 01:54:47;;;;;;;8.40;3.67;;;21.20;37.80;;;;;;5025907;28;20046;-48
2021/11/11 01:57:14;;;;;;;6.45;3.90;;;21.20;37.80;;;;;;5013484;28;20025;-46
2021/11/11 01:59:41;;;;;;;6.10;4.10;;;21.20;37.80;;;;;;5025071;28;20029;-48
2021/11/11 02:02:08;;;;;;;6.85;4.47;;;21.20;37.80;;;;;;5021153;28;20026;-51
2021/11/11 02:04:42;;;;;;;;;;;21.20;37.80;;;;;;5016463;28;20048;-54
2021/11/11 02:07:08;;;;;;;5.00;3.50;;;21.20;37.80;;;;;;5027474;28;20331;-49
2021/11/11 02:09:39;;;;;;;5.47;3.47;;;21.20;37.90;;;;;;5024704;28;20108;-51
2021/11/11 02:12:29;;;;;;;5.50;3.70;;;21.20;37.80;;;;;;5020183;28;20860;-48
2021/11/11 02:14:58;;;;;;;5.15;3.95;;;21.20;37.80;;;;;;5020918;28;20318;-50
2021/11/11 02:17:29;;;;;;;6.72;3.97;;;21.20;37.90;;;;;;5015495;28;20037;-48
2021/11/11 02:20:11;;;;;;;5.28;3.83;;;21.10;37.90;;;;;;5027254;28;20037;-49
2021/11/11 02:22:56;;;;;;;5.45;4.00;;;21.20;37.80;;;;;;5029392;28;20064;-48
2021/11/11 02:25:36;;;;;;;4.95;3.33;;;21.20;37.90;;;;;;5015124;28;20095;-46
2021/11/11 02:28:10;;;;;;;6.65;4.28;;;21.20;37.90;;;;;;5027864;28;20088;-51
2021/11/11 02:30:37;;;;;;;5.20;4.03;;;21.20;37.90;;;;;;5006086;28;20021;-50
2021/11/11 02:33:12;;;;;;;6.97;3.95;;;21.10;37.80;;;;;;5020041;28;20080;-45
2021/11/11 02:35:40;;;;;;;5.65;4.30;;;21.20;37.80;;;;;;5025283;28;20017;-46
2021/11/11 02:38:07;;;;;;;6.10;4.10;;;21.20;37.90;;;;;;5023421;28;20025;-49
2021/11/11 02:40:38;;;;;;;5.53;4.60;;;21.20;37.90;;;;;;5031380;28;20025;-52
2021/11/11 02:43:04;;;;;;;6.25;4.50;;;21.10;37.80;;;;;;5023358;28;20129;-46
2021/11/11 02:45:34;;;;;;;5.85;4.30;;;21.20;37.90;;;;;;5026318;28;20113;-53
2021/11/11 02:48:05;;;;;;;6.00;4.13;;;21.20;37.90;;;;;;5022674;28;20116;-48
2021/11/11 02:50:37;;;;;;;5.38;4.00;;;21.10;37.80;;;;;;5026991;28;20032;-44
2021/11/11 02:53:05;;;;;;;6.57;4.20;;;21.10;37.90;;;;;;5020747;28;20463;-50
2021/11/11 02:55:32;;;;;;;6.05;4.35;;;21.20;37.90;;;;;;5032530;28;20470;-49
2021/11/11 02:57:59;;;;;;;6.53;4.15;;;21.10;37.90;;;;;;5018624;28;20064;-49
2021/11/11 03:00:40;;;;;;;7.32;4.22;;;21.10;37.90;;;;;;5030816;28;20045;-47
2021/11/11 03:03:07;;;;;;;5.63;4.22;;;21.20;37.90;;;;;;5021217;28;20437;-46
2021/11/11 03:05:36;;;;;;;4.85;3.70;;;21.20;37.90;;;;;;5020098;28;20365;-48
2021/11/11 03:08:07;;;;;;;7.30;4.28;;;21.10;37.90;;;;;;5017861;28;20026;-48
2021/11/11 03:10:37;;;;;;;7.15;4.70;;;21.10;37.90;;;;;;5020373;28;20038;-48
2021/11/11 03:13:03;;;;;;;6.00;4.47;;;21.10;37.90;;;;;;5031630;28;20079;-46
2021/11/11 03:15:32;;;;;;;6.53;4.38;;;21.10;37.90;;;;;;5018826;28;20056;-46
2021/11/11 03:17:58;;;;;;;6.05;4.60;;;21.10;37.90;;;;;;5026563;28;20033;-50
2021/11/11 03:20:25;;;;;;;7.38;4.68;;;21.10;37.90;;;;;;5021469;28;20457;-46
2021/11/11 03:22:51;;;;;;;5.63;4.25;;;21.10;37.90;;;;;;5044926;28;20028;-51
2021/11/11 03:25:24;;;;;;;7.25;4.20;;;21.10;37.90;;;;;;5024623;28;20029;-48
2021/11/11 03:27:51;;;;;;;5.80;4.13;;;21.10;37.80;;;;;;5024867;28;20407;-47
2021/11/11 03:30:21;;;;;;;7.32;4.32;;;21.10;37.80;;;;;;5021373;28;20323;-46
2021/11/11 03:32:51;;;;;;;5.50;4.43;;;21.10;37.90;;;;;;5032228;28;20037;-51
2021/11/11 03:35:19;;;;;;;5.82;4.35;;;21.10;37.80;;;;;;5034967;28;20025;-46
2021/11/11 03:37:49;;;;;;;5.68;4.07;;;21.10;37.80;;;;;;5028128;28;20131;-49
2021/11/11 03:40:24;;;;;;;6.57;4.10;;;21.10;37.80;;;;;;5035375;28;20025;-51
2021/11/11 03:42:52;;;;;;;5.10;3.90;;;21.10;37.80;;;;;;5034498;28;20029;-46
2021/11/11 03:45:21;;;;;;;6.35;4.43;;;21.10;37.80;;;;;;5031210;28;20040;-51
2021/11/11 03:47:48;;;;;;;6.80;4.50;;;21.10;37.80;;;;;;5017259;28;20445;-50
2021/11/11 03:50:15;;;;;;;6.32;4.55;;;21.10;37.80;;;;;;5023096;28;20195;-47
2021/11/11 03:52:44;;;;;;;6.93;4.45;;;21.10;37.80;;;;;;5026753;28;20029;-49
2021/11/11 03:55:14;;;;;;;5.65;3.92;;;21.10;37.80;;;;;;5034569;28;20135;-51
2021/11/11 03:57:41;;;;;;;7.18;4.07;;;21.10;37.80;;;;;;5035488;28;20033;-45
2021/11/11 04:00:12;;;;;;;7.00;4.22;;;21.00;37.80;;;;;;5024007;28;20124;-55
2021/11/11 04:02:41;;;;;;;5.57;3.80;;;21.10;37.80;;;;;;5024826;28;20029;-49
2021/11/11 04:05:11;;;;;;;6.68;4.63;;;21.00;37.80;;;;;;5034768;28;20124;-48
2021/11/11 04:07:44;;;;;;;5.13;3.85;;;21.10;37.80;;;;;;5024296;28;20029;-49
2021/11/11 04:10:11;;;;;;;6.25;4.50;;;21.00;37.80;;;;;;5034243;28;20120;-55
2021/11/11 04:12:37;;;;;;;5.75;4.18;;;21.00;37.80;;;;;;5034641;28;20364;-49
2021/11/11 04:15:05;;;;;;;7.72;4.60;;;21.00;37.80;;;;;;5034564;28;20033;-54
2021/11/11 04:17:31;;;;;;;5.13;3.67;;;21.10;37.80;;;;;;5035397;28;20114;-49
2021/11/11 04:19:57;;;;;;;5.22;3.95;;;21.00;37.80;;;;;;5029531;28;20060;-47
2021/11/11 04:22:23;;;;;;;5.28;3.78;;;21.00;37.80;;;;;;5024428;28;20108;-47
2021/11/11 04:24:50;;;;;;;5.38;4.05;;;21.00;37.80;;;;;;5017071;28;20405;-49
2021/11/11 04:27:28;;;;;;;5.35;3.92;;;21.00;37.80;;;;;;5015259;28;20033;-47
2021/11/11 04:32:53;;;;;;;5.85;4.07;;;21.00;37.80;;;;;;4986089;28;20124;-48
2021/11/11 04:35:19;;;;;;;5.88;3.83;;;21.00;37.80;;;;;;5022126;28;20052;-48
2021/11/11 04:37:54;;;;;;;6.05;4.20;;;21.00;37.90;;;;;;5035827;28;20038;-50
2021/11/11 04:43:06;;;;;;;5.45;3.70;;;21.00;37.90;;;;;;5015166;28;20117;-49
2021/11/11 04:51:31;;;;;;;6.13;4.10;;;21.00;37.90;;;;;;5019265;28;20124;-51
2021/11/11 05:04:21;;;;;;;5.63;4.20;;;21.00;37.90;;;;;;5032475;28;20029;-48
2021/11/11 05:06:49;;;;;;;5.55;4.05;;;20.90;37.90;;;;;;5035028;28;20455;-51
2021/11/11 05:09:15;;;;;;;7.00;4.55;;;20.90;37.90;;;;;;5026386;28;20029;-50
2021/11/11 05:11:41;;;;;;;5.95;4.25;;;21.00;37.90;;;;;;5023750;28;20038;-50
2021/11/11 05:14:07;;;;;;;6.75;4.07;;;21.00;37.90;;;;;;5015875;28;20092;-50
2021/11/11 05:16:33;;;;;;;5.70;4.05;;;20.90;37.90;;;;;;5034464;28;20037;-51
2021/11/11 05:18:59;;;;;;;6.28;4.38;;;20.90;37.90;;;;;;5033865;28;20042;-49
2021/11/11 05:21:26;;;;;;;7.50;4.75;;;20.90;37.90;;;;;;5021617;28;20037;-50
2021/11/11 05:23:52;;;;;;;5.18;3.88;;;20.90;37.90;;;;;;5023180;28;20029;-57
2021/11/11 05:26:22;;;;;;;5.30;3.83;;;20.90;37.90;;;;;;5029496;28;20065;-48
2021/11/11 05:28:50;;;;;;;5.85;4.25;;;20.90;37.90;;;;;;5032128;28;20036;-49
2021/11/11 05:31:16;;;;;;;6.53;4.20;;;20.90;37.90;;;;;;5017301;28;20365;-45
2021/11/11 05:33:42;;;;;;;6.40;4.47;;;21.00;38.00;;;;;;5014308;28;20034;-49
2021/11/11 05:36:09;;;;;;;5.75;3.92;;;20.90;37.90;;;;;;5029628;28;20068;-47
2021/11/11 05:38:35;;;;;;;6.68;4.90;;;20.90;37.90;;;;;;5032803;28;20064;-49
2021/11/11 05:41:02;;;;;;;6.32;4.25;;;20.90;37.90;;;;;;5021689;28;20116;-49
2021/11/11 05:43:28;;;;;;;7.20;4.13;;;20.90;37.90;;;;;;5034824;28;20100;-48
2021/11/11 05:45:54;;;;;;;6.35;4.63;;;21.00;37.90;;;;;;5020878;28;20069;-48
2021/11/11 05:48:20;;;;;;;6.30;4.22;;;20.90;37.90;;;;;;5013717;28;20038;-49
2021/11/11 05:50:46;;;;;;;5.75;4.25;;;20.90;37.90;;;;;;5019199;28;20041;-47
2021/11/11 05:53:14;;;;;;;11.13;4.22;;;20.90;37.90;;;;;;5016011;28;20021;-49
2021/11/11 05:55:41;;;;;;;5.70;4.07;;;20.90;38.00;;;;;;5022901;28;20068;-47
2021/11/11 05:58:11;;;;;;;5.95;3.97;;;20.90;37.90;;;;;;5019161;28;20037;-48
2021/11/11 06:00:38;;;;;;;7.03;4.03;;;20.90;37.90;;;;;;5027902;28;20037;-47
2021/11/11 06:03:30;;;;;;;6.65;4.53;;;20.90;37.90;;;;;;5023025;28;20429;-46
2021/11/11 06:05:59;;;;;;;5.30;4.32;;;20.90;37.90;;;;;;5032733;28;20035;-49
2021/11/11 06:08:31;;;;;;;5.47;3.85;;;20.90;37.90;;;;;;5035953;28;20410;-51
2021/11/11 06:10:57;;;;;;;6.40;4.13;;;20.90;37.90;;;;;;5028194;28;20057;-49
2021/11/11 06:13:23;;;;;;;6.55;4.07;;;20.90;37.90;;;;;;5019084;28;20030;-52
2021/11/11 06:15:51;;;;;;;6.18;4.20;;;20.90;37.90;;;;;;5028097;28;20033;-45
2021/11/11 06:18:18;;;;;;;5.65;3.95;;;20.90;37.90;;;;;;5037813;28;20045;-51
2021/11/11 06:20:50;;;;;;;5.80;3.90;;;20.90;37.90;;;;;;5032085;28;20034;-48
2021/11/11 06:23:17;;;;;;;5.70;4.18;;;20.90;37.90;;;;;;5026166;28;20099;-50
2021/11/11 06:25:43;;;;;;;7.05;4.70;;;20.90;37.90;;;;;;5021707;28;20095;-49
2021/11/11 06:28:09;;;;;;;6.63;4.50;;;20.90;37.90;;;;;;5017400;28;20030;-48
2021/11/11 06:30:36;;;;;;;7.68;4.75;;;20.90;37.90;;;;;;5024149;28;20136;-48
2021/11/11 06:33:06;;;;;;;6.05;4.13;;;20.90;37.90;;;;;;5037404;28;20041;-51
2021/11/11 06:35:33;;;;;;;5.93;3.97;;;20.90;38.00;;;;;;5036795;28;20037;-49
2021/11/11 06:38:00;;;;;;;6.60;4.50;;;20.90;38.00;;;;;;5038216;28;20052;-46
2021/11/11 06:40:27;;;;;;;6.05;4.65;;;20.90;38.00;;;;;;5028120;28;20045;-47
2021/11/11 06:42:55;;;;;;;5.78;4.05;;;20.90;38.00;;;;;;5038421;28;20025;-51
2021/11/11 06:45:22;;;;;;;6.28;4.05;;;20.90;38.00;;;;;;5033275;28;20048;-54
2021/11/11 06:47:48;;;;;;;5.28;3.55;;;20.90;38.00;;;;;;5037099;28;20026;-49
2021/11/11 06:50:14;;;;;;;6.28;4.10;;;20.90;38.00;;;;;;5031447;28;20025;-52
2021/11/11 06:52:40;;;;;;;6.15;4.20;;;20.90;38.00;;;;;;5036994;28;20425;-46
2021/11/11 06:55:07;;;;;;;6.57;4.22;;;20.90;38.00;;;;;;5034932;28;20053;-46
2021/11/11 06:57:33;;;;;;;5.68;4.57;;;20.90;38.00;;;;;;5037685;28;20040;-48
2021/11/11 07:00:10;;;;;;;5.60;4.03;;;20.90;38.00;;;;;;5022882;28;20471;-50
2021/11/11 07:02:37;;;;;;;6.03;4.03;;;20.90;38.60;;;;;;5020344;28;20287;-53
2021/11/11 07:05:04;;;;;;;5.75;4.13;;;20.90;38.00;;;;;;5021615;28;20423;-49
2021/11/11 07:07:29;;;;;;;7.53;3.95;;;20.90;37.90;;;;;;5016934;28;20042;-47
2021/11/11 07:09:55;;;;;;;5.38;3.92;;;20.90;37.90;;;;;;5032778;28;20033;-49
2021/11/11 07:12:21;;;;;;;5.78;3.92;;;20.90;37.90;;;;;;5025059;28;20364;-51
2021/11/11 07:14:47;;;;;;;5.45;3.80;;;20.90;37.90;;;;;;5018266;28;20345;-51
2021/11/11 07:17:13;;;;;;;6.20;4.15;;;20.90;37.90;;;;;;5020724;28;20021;-48
2021/11/11 07:19:39;;;;;;;6.60;4.03;;;20.90;37.90;;;;;;5023073;28;20041;-51
2021/11/11 07:22:05;;;;;;;5.22;3.90;;;20.80;37.90;;;;;;5018520;28;20048;-52
2021/11/11 07:24:32;;;;;;;5.13;3.83;;;20.80;37.90;;;;;;5030267;28;20034;-48
2021/11/11 07:26:58;;;;;;;5.55;4.18;;;20.80;37.90;;;;;;5036255;28;20025;-47
2021/11/11 07:29:24;;;;;;;6.13;4.18;;;20.80;37.90;;;;;;5035874;28;20041;-54
2021/11/11 07:31:52;;;;;;;4.97;3.67;;;20.80;38.00;;;;;;5034451;28;20353;-48
2021/11/11 07:34:20;;;;;;;5.78;4.30;;;20.80;38.00;;;;;;5017521;28;20044;-47
2021/11/11 07:36:46;;;;;;;5.35;3.53;;;20.80;38.00;;;;;;5017466;28;20441;-52
2021/11/11 07:39:13;;;;;;;5.78;3.80;;;20.90;38.10;;;;;;5019083;28;20120;-55
2021/11/11 07:41:39;;;;;;;5.97;4.03;;;20.80;38.00;;;;;;5036903;28;20097;-50
2021/11/11 07:44:06;;;;;;;5.57;3.92;;;20.80;38.10;;;;;;5019698;28;20056;-51
2021/11/11 07:46:33;;;;;;;5.70;3.90;;;20.80;38.10;;;;;;5022054;28;20124;-52
2021/11/11 07:49:00;;;;;;;6.03;4.03;;;20.90;38.20;;;;;;5035123;28;20040;-50
2021/11/11 07:51:26;;;;;;;5.93;3.83;;;20.90;38.30;;;;;;5026044;28;20491;-51
2021/11/11 07:53:52;;;;;;;6.68;4.47;;;20.80;38.20;;;;;;5021201;28;20049;-50
2021/11/11 07:56:18;;;;;;;6.28;4.10;;;20.80;38.20;;;;;;5026496;28;20029;-47
2021/11/11 07:58:44;;;;;;;5.07;3.67;;;20.90;38.30;;;;;;5028521;28;20352;-51
2021/11/11 08:01:10;;;;;;;6.63;4.40;;;20.90;38.20;;;;;;5027234;28;20057;-49
2021/11/11 08:03:36;;;;;;;5.88;4.07;;;20.90;38.20;;;;;;5025429;28;20045;-47
2021/11/11 08:06:02;;;;;;;6.25;3.72;;;21.00;38.10;;;;;;5016935;28;20030;-48
2021/11/11 08:08:28;;;;;;;5.53;3.80;;;21.10;38.00;;;;;;5017226;28;20494;-46
2021/11/11 08:10:55;;;;;;;7.35;4.15;;;21.10;37.90;;;;;;5017006;28;20112;-51
2021/11/11 08:13:22;;;;;;;6.28;4.20;;;21.20;37.80;;;;;;5017690;28;20467;-48
2021/11/11 08:15:48;;;;;;;5.38;3.30;;;21.30;37.70;;;;;;5035827;28;20113;-51
2021/11/11 08:18:13;;;;;;;5.70;4.18;;;21.40;37.60;;;;;;5025092;28;20048;-49
2021/11/11 08:20:39;;;;;;;5.90;4.38;;;21.50;37.50;;;;;;5035953;28;20025;-51
2021/11/11 08:23:06;;;;;;;5.22;3.70;;;21.60;37.40;;;;;;5036078;28;20043;-50
2021/11/11 08:25:33;;;;;;;5.72;4.15;;;21.70;37.40;;;;;;5035268;28;20035;-50
2021/11/11 08:28:00;;;;;;;7.00;4.10;;;21.70;37.30;;;;;;5026141;28;20101;-46
2021/11/11 08:30:26;;;;;;;5.45;3.95;;;21.80;37.20;;;;;;5036228;28;20029;-51
2021/11/11 08:32:53;;;;;;;5.97;4.15;;;21.90;37.10;;;;;;5029100;28;20453;-51
2021/11/11 08:35:20;;;;;;;6.25;4.25;;;22.00;37.10;;;;;;5026046;28;20033;-49
2021/11/11 08:37:47;;;;;;;6.60;4.18;;;22.00;37.00;;;;;;5020835;28;20038;-47
2021/11/11 08:40:16;;;;;;;6.63;4.40;;;22.10;36.90;;;;;;5021077;28;20121;-49
2021/11/11 08:42:54;;;;;;;5.65;4.07;;;22.10;36.70;;;;;;5020813;28;20113;-49
2021/11/11 08:45:22;;;;;;;5.65;4.32;;;22.20;36.70;;;;;;5020697;28;21454;-48
2021/11/11 08:47:48;;;;;;;5.88;3.78;;;22.30;36.60;;;;;;5022415;28;20026;-47
2021/11/11 08:50:15;;;;;;;6.05;4.22;;;22.30;36.50;;;;;;5021598;28;20032;-54
2021/11/11 08:52:45;;;;;;;6.32;4.28;;;22.40;36.50;;;;;;5021434;28;20471;-50
2021/11/11 08:55:19;;;;;;;7.03;4.55;;;22.50;36.50;;;;;;5015810;28;20046;-53
2021/11/11 08:57:45;;;;;;;5.60;4.05;;;22.50;36.30;;;;;;5016104;28;20025;-48
2021/11/11 09:00:18;;;;;;;6.03;4.13;;;22.50;36.30;;;;;;5016082;28;20038;-52
2021/11/11 09:02:45;;;;;;;5.97;4.55;;;22.60;36.20;;;;;;5022695;28;20338;-46
2021/11/11 09:05:11;;;;;;;6.97;4.20;;;22.70;36.20;;;;;;5020248;28;20026;-53
2021/11/11 09:07:39;;;;;;;5.03;3.97;;;22.70;36.20;;;;;;5019563;28;20369;-51
2021/11/11 09:10:11;;;;;;;6.03;3.97;;;22.70;36.10;;;;;;5024858;28;20037;-49
2021/11/11 09:12:37;;;;;;;6.60;4.63;;;22.80;36.00;;;;;;5030410;28;20483;-48
2021/11/11 09:15:05;;;;;;;5.82;4.32;;;22.80;36.00;;;;;;5035384;28;20048;-47
2021/11/11 09:17:32;;;;;;;5.70;4.10;;;22.90;36.00;;;;;;5035386;28;20048;-50
2021/11/11 09:19:58;;;;;;;5.90;4.30;;;22.90;35.90;;;;;;5035131;28;20234;-50
2021/11/11 09:22:25;;;;;;;4.63;3.35;;;23.00;35.90;;;;;;5016687;28;20042;-53
2021/11/11 09:24:51;;;;;;;5.97;4.10;;;23.00;35.80;;;;;;5020007;28;20108;-52
2021/11/11 09:27:16;;;;;;;6.65;4.57;;;23.00;35.70;;;;;;5017114;28;20061;-50
2021/11/11 09:29:42;;;;;;;5.38;4.20;;;23.00;35.60;;;;;;5015182;28;20034;-51
2021/11/11 09:32:08;;;;;;;6.40;4.57;;;23.10;35.60;;;;;;5015317;28;20357;-50
2021/11/11 09:34:34;;;;;;;5.28;4.25;;;23.10;35.60;;;;;;5031422;28;20060;-50
2021/11/11 09:37:00;;;;;;;6.43;4.80;;;23.10;35.60;;;;;;5035407;28;20030;-51
2021/11/11 09:39:26;;;;;;;5.75;4.13;;;23.20;35.60;;;;;;5029292;28;20453;-52
2021/11/11 09:41:56;;;;;;;4.80;3.60;;;23.20;35.60;;;;;;5025742;28;20065;-52
2021/11/11 09:44:25;;;;;;;4.95;3.90;;;23.20;35.50;;;;;;5015348;28;20310;-53
2021/11/11 09:46:53;;;;;;;6.47;3.60;;;23.20;35.60;;;;;;5027328;28;20405;-51
2021/11/11 09:49:20;;;;;;;5.90;4.35;;;23.10;35.60;;;;;;5023047;28;20504;-52
2021/11/11 09:51:48;;;;;;;4.72;4.00;;;23.10;35.60;;;;;;5030006;28;20033;-56
2021/11/11 09:59:27;;;;;;;6.30;4.50;;;23.10;35.60;;;;;;5016787;28;20484;-50
2021/11/11 10:01:54;;;;;;;6.78;4.70;;;23.10;35.60;;;;;;5018061;28;20476;-50
2021/11/11 10:04:21;;;;;;;6.28;4.88;;;23.10;35.60;;;;;;5019799;28;20025;-45
2021/11/11 10:06:47;;;;;;;6.88;5.30;;;23.00;35.60;;;;;;5035252;28;20045;-46
2021/11/11 10:09:19;;;;;;;7.70;5.40;;;23.00;35.60;;;;;;5029427;28;20095;-49
2021/11/11 10:11:51;;;;;;;7.00;5.03;;;22.90;35.70;;;;;;5021358;28;20113;-50
2021/11/11 10:14:25;;;;;;;7.95;5.60;;;22.80;35.80;;;;;;5015169;28;20100;-48
2021/11/11 10:16:58;;;;;;;9.73;5.88;;;22.70;35.90;;;;;;5034520;28;20052;-51
2021/11/11 10:19:28;;;;;;;8.88;5.85;;;22.60;36.10;;;;;;5031288;28;20045;-48
2021/11/11 10:22:28;;;;;;;7.75;5.50;;;22.50;36.20;;;;;;5029191;28;20041;-51
2021/11/11 10:25:01;;;;;;;6.53;5.25;;;22.50;36.30;;;;;;5017010;28;20041;-46
2021/11/11 10:27:50;;;;;;;8.02;5.22;;;22.40;36.40;;;;;;5022690;28;20460;-47
2021/11/11 10:30:27;;;;;;;7.28;5.70;;;22.30;36.40;;;;;;5023600;28;20113;-48
2021/11/11 10:32:56;;;;;;;7.00;5.03;;;22.30;36.50;;;;;;5016303;28;20416;-46
2021/11/11 10:35:23;;;;;;;6.65;5.28;;;22.20;36.50;;;;;;5033695;28;20600;-49
2021/11/11 10:38:15;;;;;;;8.07;5.32;;;22.20;36.50;;;;;;5028792;28;20052;-54
2021/11/11 10:40:48;;;;;;;7.60;5.20;;;22.20;36.60;;;;;;5022521;28;20128;-52
2021/11/11 10:43:22;;;;;;;6.60;5.03;;;22.10;36.80;;;;;;5025474;28;20037;-49
2021/11/11 10:45:50;;;;;;;8.23;4.65;;;22.10;37.00;;;;;;5029750;28;20052;-54
2021/11/11 10:48:19;;;;;;;6.50;4.47;;;22.10;37.10;;;;;;5034554;28;20105;-55
2021/11/11 10:50:50;;;;;;;6.63;5.07;;;22.10;37.20;;;;;;5028732;28;20037;-49
2021/11/11 10:53:21;;;;;;;8.52;4.80;;;22.10;37.30;;;;;;5038083;28;20405;-52
2021/11/11 10:55:51;;;;;;;6.75;4.25;;;22.10;37.30;;;;;;5031403;28;20045;-53
2021/11/11 10:58:23;;;;;;;6.20;4.47;;;22.10;37.40;;;;;;5035787;28;20043;-50
2021/11/11 11:01:04;;;;;;;5.85;4.45;;;22.00;37.50;;;;;;5030969;28;20029;-49
2021/11/11 11:03:42;;;;;;;6.90;4.55;;;22.00;37.50;;;;;;5027132;28;20518;-52
2021/11/11 11:06:14;;;;;;;7.60;4.47;;;22.00;37.50;;;;;;5018680;28;20110;-53
2021/11/11 11:08:44;;;;;;;7.70;5.03;;;22.00;37.70;;;;;;5018896;28;20033;-48
2021/11/11 11:11:17;;;;;;;6.90;4.70;;;22.00;37.70;;;;;;5028253;28;20025;-51
2021/11/11 11:13:58;;;;;;;6.72;4.68;;;22.00;37.70;;;;;;5023778;28;20112;-51
2021/11/11 11:16:32;;;;;;;7.55;5.00;;;21.90;37.70;;;;;;5024625;28;20029;-56
2021/11/11 11:19:04;;;;;;;5.65;4.22;;;21.90;37.70;;;;;;5036061;28;20041;-53
2021/11/11 11:21:40;;;;;;;8.82;5.10;;;21.90;37.70;;;;;;5023773;28;20449;-55
2021/11/11 11:24:33;;;;;;;7.55;4.85;;;21.90;37.70;;;;;;5018080;28;20491;-54
2021/11/11 11:27:04;;;;;;;8.80;5.25;;;21.90;37.70;;;;;;5021853;28;20084;-49
2021/11/11 11:32:11;;;;;;;8.35;5.28;;;21.80;37.80;;;;;;5027789;28;20095;-54
2021/11/11 11:34:41;;;;;;;6.63;4.82;;;21.90;37.90;;;;;;5036875;28;20429;-53
2021/11/11 11:37:12;;;;;;;7.35;5.28;;;21.90;37.90;;;;;;5032708;28;20042;-54
2021/11/11 11:39:51;;;;;;;7.35;4.85;;;21.90;38.00;;;;;;5029177;28;20073;-58
2021/11/11 11:42:26;;;;;;;14.55;4.70;;;21.90;38.00;;;;;;5026444;28;20025;-58
2021/11/11 11:44:59;;;;;;;7.47;5.03;;;21.90;38.10;;;;;;5029896;28;20031;-55
2021/11/11 11:47:37;;;;;;;9.30;4.72;;;21.80;38.20;;;;;;5018047;28;20371;-54
2021/11/11 11:50:15;;;;;;;7.75;4.57;;;21.80;38.20;;;;;;5021019;28;20037;-54
2021/11/11 11:52:44;;;;;;;7.40;4.88;;;21.80;38.30;;;;;;5025329;28;20041;-59
2021/11/11 12:14:13;;;;;;;9.15;5.43;;;21.70;38.50;;;;;;5015311;28;20030;-54
2021/11/11 12:40:00;;;;;;;7.25;5.22;;;21.70;38.90;;;;;;5034376;28;20040;-53
2021/11/11 12:42:57;;;;;;;9.38;5.82;;;21.80;38.80;;;;;;4991644;28;20042;-49
2021/11/11 12:45:34;;;;;;;8.95;5.72;;;21.80;38.90;;;;;;5017105;28;20038;-53
2021/11/11 12:48:09;;;;;;;7.65;5.38;;;21.80;38.80;;;;;;5017960;28;20049;-54
2021/11/11 12:50:38;;;;;;;8.73;5.65;;;21.90;38.80;;;;;;5029160;28;20057;-51
2021/11/11 12:53:18;;;;;;;7.90;5.63;;;21.90;38.80;;;;;;5027815;28;20040;-54
2021/11/11 12:55:53;;;;;;;9.88;5.88;;;21.90;38.80;;;;;;5035865;28;20084;-55
2021/11/11 12:58:20;;;;;;;;;;;21.90;38.80;;;;;;5033939;28;20107;-51
2021/11/11 13:00:50;;;;;;;9.65;5.82;;;21.90;38.80;;;;;;5021305;28;19921;-52
2021/11/11 13:03:18;;;;;;;7.68;5.20;;;21.90;38.90;;;;;;5034082;28;20033;-54
2021/11/11 13:05:44;;;;;;;7.78;5.75;;;21.90;38.90;;;;;;5031232;28;20444;-50
2021/11/11 13:08:10;;;;;;;9.38;5.40;;;22.00;38.90;;;;;;5019858;28;20031;-51
2021/11/11 13:10:54;;;;;;;8.38;5.43;;;22.00;38.90;;;;;;5035677;28;20464;-55
2021/11/11 13:13:25;;;;;;;7.35;5.60;;;22.00;38.80;;;;;;5036062;28;20037;-53
2021/11/11 13:15:53;;;;;;;7.22;5.88;;;22.00;38.80;;;;;;5028014;28;20026;-57
2021/11/11 13:18:39;;;;;;;7.80;5.85;;;22.00;38.80;;;;;;5030522;28;20041;-57
2021/11/11 13:21:29;;;;;;;7.72;5.78;;;22.10;38.80;;;;;;5035107;28;20029;-56
2021/11/11 13:27:51;;;;;;;7.70;5.78;;;22.00;38.60;;;;;;5035122;28;20167;-53
2021/11/11 15:59:49;;;;;;;6.38;4.38;;;22.10;38.90;;;;;;5023236;28;20408;-52
2021/11/11 16:19:50;;;;;;;6.90;4.68;;;22.00;39.30;;;;;;5023531;28;20037;-52
2021/11/11 16:28:02;;;;;;;6.45;4.50;;;21.90;39.30;;;;;;4946294;28;20042;-50
2021/11/11 16:30:28;;;;;;;5.97;4.40;;;22.00;39.30;;;;;;4986594;28;20096;-52
2021/11/11 16:32:54;;;;;;;6.78;4.45;;;22.00;39.40;;;;;;5022310;28;20095;-53
2021/11/11 16:35:22;;;;;;;6.45;4.45;;;21.90;39.40;;;;;;5029975;28;20041;-56
2021/11/11 16:37:48;;;;;;;6.82;4.68;;;21.90;39.40;;;;;;5030584;28;20041;-50
2021/11/11 16:40:18;;;;;;;8.23;4.80;;;21.90;39.50;;;;;;5021877;28;20451;-48
2021/11/11 16:42:44;;;;;;;6.38;4.93;;;21.90;39.90;;;;;;5027554;28;20057;-56
2021/11/11 16:45:12;;;;;;;6.72;4.28;;;21.90;39.60;;;;;;5019488;28;20030;-52
2021/11/11 16:47:37;;;;;;;6.70;4.70;;;21.90;39.60;;;;;;5023027;28;20365;-56
2021/11/11 16:50:04;;;;;;;7.95;4.47;;;21.90;39.70;;;;;;5019996;28;20040;-51
2021/11/11 16:52:32;;;;;;;5.72;4.38;;;21.80;39.70;;;;;;5026044;28;20033;-53
2021/11/11 16:54:57;;;;;;;6.95;5.10;;;21.80;39.70;;;;;;5022358;28;20041;-53
2021/11/11 16:57:23;;;;;;;6.00;4.28;;;21.80;39.70;;;;;;5021730;28;20049;-52
2021/11/11 16:59:49;;;;;;;6.60;4.78;;;21.80;39.70;;;;;;5022561;28;20061;-49
2021/11/11 17:02:15;;;;;;;7.15;4.32;;;21.80;39.70;;;;;;5020912;28;20094;-53
2021/11/11 17:04:41;;;;;;;5.68;4.20;;;21.80;39.80;;;;;;5025472;28;20037;-47
2021/11/11 17:07:07;;;;;;;6.88;4.85;;;21.80;39.80;;;;;;5025674;28;20041;-52